sensor_id;sensor_type;location;lat;lon;timestamp;pressure;altitude;pressure_sealevel;temperature;humidity
12215;BME280;6170;42.206;24.142;2023-05-02T00:00:53;99301.22;;;12.00;80.69
12215;BME280;6170;42.206;24.142;2023-05-02T00:03:20;99308.34;;;11.80;81.61
12215;BME280;6170;42.206;24.142;2023-05-02T00:05:48;99314.22;;;11.68;82.19
12215;BME280;6170;42.206;24.142;2023-05-02T00:08:15;99345.44;;;11.97;82.07
12215;BME280;6170;42.206;24.142;2023-05-02T00:10:42;99339.69;;;11.73;82.48
12215;BME280;6170;42.206;24.142;2023-05-02T00:13:09;99318.69;;;11.83;82.35
12215;BME280;6170;42.206;24.142;2023-05-02T00:15:36;99352.03;;;11.95;81.80
12215;BME280;6170;42.206;24.142;2023-05-02T00:18:03;99321.06;;;11.99;81.45
12215;BME280;6170;42.206;24.142;2023-05-02T00:20:30;99353.44;;;12.25;80.94
12215;BME280;6170;42.206;24.142;2023-05-02T00:22:58;99323.69;;;11.92;81.56
12215;BME280;6170;42.206;24.142;2023-05-02T00:25:25;99357.53;;;11.87;81.35
12215;BME280;6170;42.206;24.142;2023-05-02T00:27:52;99330.97;;;11.98;81.14
12215;BME280;6170;42.206;24.142;2023-05-02T00:30:19;99324.34;;;11.94;81.25
12215;BME280;6170;42.206;24.142;2023-05-02T00:32:46;99323.34;;;12.02;80.92
12215;BME280;6170;42.206;24.142;2023-05-02T00:35:13;99329.94;;;11.99;81.19
12215;BME280;6170;42.206;24.142;2023-05-02T00:37:40;99330.34;;;11.96;80.93
12215;BME280;6170;42.206;24.142;2023-05-02T00:40:09;99339.13;;;11.84;80.99
12215;BME280;6170;42.206;24.142;2023-05-02T00:42:36;99329.06;;;11.92;81.27
12215;BME280;6170;42.206;24.142;2023-05-02T00:45:03;99328.88;;;11.94;81.10
12215;BME280;6170;42.206;24.142;2023-05-02T00:47:31;99332.78;;;11.91;80.96
12215;BME280;6170;42.206;24.142;2023-05-02T00:49:58;99329.66;;;11.88;81.09
12215;BME280;6170;42.206;24.142;2023-05-02T00:52:25;99332.75;;;11.85;81.70
12215;BME280;6170;42.206;24.142;2023-05-02T00:54:53;99368.34;;;11.93;81.11
12215;BME280;6170;42.206;24.142;2023-05-02T00:57:22;99330.97;;;11.70;81.55
12215;BME280;6170;42.206;24.142;2023-05-02T00:59:50;99333.34;;;11.80;81.41
12215;BME280;6170;42.206;24.142;2023-05-02T01:02:29;99333.59;;;11.64;81.18
12215;BME280;6170;42.206;24.142;2023-05-02T01:05:01;99376.00;;;11.96;80.74
12215;BME280;6170;42.206;24.142;2023-05-02T01:07:46;99340.75;;;11.78;81.00
12215;BME280;6170;42.206;24.142;2023-05-02T01:10:22;99349.50;;;11.65;81.12
12215;BME280;6170;42.206;24.142;2023-05-02T01:13:01;99345.28;;;11.50;81.79
12215;BME280;6170;42.206;24.142;2023-05-02T01:15:30;99376.69;;;11.77;82.19
12215;BME280;6170;42.206;24.142;2023-05-02T01:17:59;99345.56;;;11.61;82.12
12215;BME280;6170;42.206;24.142;2023-05-02T01:20:28;99342.88;;;11.61;81.98
12215;BME280;6170;42.206;24.142;2023-05-02T01:23:01;99335.41;;;11.57;81.30
12215;BME280;6170;42.206;24.142;2023-05-02T01:25:35;99333.31;;;11.52;82.33
12215;BME280;6170;42.206;24.142;2023-05-02T01:28:17;99340.75;;;11.50;82.27
12215;BME280;6170;42.206;24.142;2023-05-02T01:30:49;99339.50;;;11.53;81.84
12215;BME280;6170;42.206;24.142;2023-05-02T01:33:20;99331.75;;;11.37;82.69
12215;BME280;6170;42.206;24.142;2023-05-02T01:35:49;99381.56;;;11.46;82.63
12215;BME280;6170;42.206;24.142;2023-05-02T01:38:18;99347.97;;;11.28;82.78
12215;BME280;6170;42.206;24.142;2023-05-02T01:40:49;99379.28;;;11.21;82.79
12215;BME280;6170;42.206;24.142;2023-05-02T01:43:17;99351.53;;;10.93;83.19
12215;BME280;6170;42.206;24.142;2023-05-02T01:45:48;99345.19;;;10.58;84.11
12215;BME280;6170;42.206;24.142;2023-05-02T01:48:16;99349.72;;;10.58;84.59
12215;BME280;6170;42.206;24.142;2023-05-02T01:50:46;99355.13;;;10.43;84.07
12215;BME280;6170;42.206;24.142;2023-05-02T01:53:15;99371.25;;;10.64;84.27
12215;BME280;6170;42.206;24.142;2023-05-02T01:55:43;99352.50;;;10.50;84.18
12215;BME280;6170;42.206;24.142;2023-05-02T01:58:11;99375.59;;;10.65;83.72
12215;BME280;6170;42.206;24.142;2023-05-02T02:00:40;99349.31;;;10.40;84.07
12215;BME280;6170;42.206;24.142;2023-05-02T02:03:11;99384.72;;;10.71;84.12
12215;BME280;6170;42.206;24.142;2023-05-02T02:05:40;99353.44;;;10.57;83.91
12215;BME280;6170;42.206;24.142;2023-05-02T02:08:08;99342.13;;;10.25;84.58
12215;BME280;6170;42.206;24.142;2023-05-02T02:10:38;99377.97;;;10.75;84.35
12215;BME280;6170;42.206;24.142;2023-05-02T02:13:13;99352.00;;;10.40;84.20
12215;BME280;6170;42.206;24.142;2023-05-02T02:15:46;99351.44;;;10.44;84.95
12215;BME280;6170;42.206;24.142;2023-05-02T02:18:19;99385.06;;;10.82;84.69
12215;BME280;6170;42.206;24.142;2023-05-02T02:20:47;99362.31;;;10.57;84.81
12215;BME280;6170;42.206;24.142;2023-05-02T02:23:17;99351.88;;;10.48;84.99
12215;BME280;6170;42.206;24.142;2023-05-02T02:25:45;99346.06;;;10.44;85.60
12215;BME280;6170;42.206;24.142;2023-05-02T02:28:12;99352.28;;;10.15;88.13
12215;BME280;6170;42.206;24.142;2023-05-02T02:30:39;99382.53;;;10.45;87.78
12215;BME280;6170;42.206;24.142;2023-05-02T02:33:06;99347.69;;;10.45;87.42
12215;BME280;6170;42.206;24.142;2023-05-02T02:35:38;99389.16;;;10.64;86.40
12215;BME280;6170;42.206;24.142;2023-05-02T02:38:12;99351.47;;;10.65;85.29
12215;BME280;6170;42.206;24.142;2023-05-02T02:40:44;99385.13;;;10.89;85.12
12215;BME280;6170;42.206;24.142;2023-05-02T02:43:19;99352.81;;;10.76;84.76
12215;BME280;6170;42.206;24.142;2023-05-02T02:45:54;99349.06;;;10.70;85.00
12215;BME280;6170;42.206;24.142;2023-05-02T02:48:28;99385.59;;;10.93;84.17
12215;BME280;6170;42.206;24.142;2023-05-02T02:51:09;99388.88;;;10.73;85.26
12215;BME280;6170;42.206;24.142;2023-05-02T02:53:59;99358.28;;;10.68;84.65
12215;BME280;6170;42.206;24.142;2023-05-02T02:56:38;99361.38;;;10.86;84.54
12215;BME280;6170;42.206;24.142;2023-05-02T02:59:11;99355.31;;;10.77;83.85
12215;BME280;6170;42.206;24.142;2023-05-02T03:01:42;99364.81;;;10.80;83.43
12215;BME280;6170;42.206;24.142;2023-05-02T03:04:15;99396.88;;;10.88;84.14
12215;BME280;6170;42.206;24.142;2023-05-02T03:06:43;99370.81;;;10.82;83.80
12215;BME280;6170;42.206;24.142;2023-05-02T03:09:14;99396.78;;;10.81;83.91
12215;BME280;6170;42.206;24.142;2023-05-02T03:11:42;99380.16;;;10.35;84.93
12215;BME280;6170;42.206;24.142;2023-05-02T03:14:09;99405.63;;;10.61;85.14
12215;BME280;6170;42.206;24.142;2023-05-02T03:16:37;99375.06;;;10.41;84.69
12215;BME280;6170;42.206;24.142;2023-05-02T03:19:05;99375.88;;;10.41;84.56
12215;BME280;6170;42.206;24.142;2023-05-02T03:21:33;99420.53;;;10.49;84.64
12215;BME280;6170;42.206;24.142;2023-05-02T03:24:03;99384.47;;;10.07;84.54
12215;BME280;6170;42.206;24.142;2023-05-02T03:26:30;99387.53;;;10.19;84.79
12215;BME280;6170;42.206;24.142;2023-05-02T03:28:57;99425.78;;;10.27;85.66
12215;BME280;6170;42.206;24.142;2023-05-02T03:31:24;99399.81;;;10.13;84.75
12215;BME280;6170;42.206;24.142;2023-05-02T03:33:50;99397.19;;;10.05;84.68
12215;BME280;6170;42.206;24.142;2023-05-02T03:36:17;99430.41;;;10.33;84.76
12215;BME280;6170;42.206;24.142;2023-05-02T03:38:44;99398.63;;;10.30;84.26
12215;BME280;6170;42.206;24.142;2023-05-02T03:41:13;99406.72;;;10.66;83.13
12215;BME280;6170;42.206;24.142;2023-05-02T03:43:39;99441.75;;;10.79;82.87
12215;BME280;6170;42.206;24.142;2023-05-02T03:46:08;99417.53;;;10.73;82.80
12215;BME280;6170;42.206;24.142;2023-05-02T03:48:36;99415.66;;;10.73;82.93
12215;BME280;6170;42.206;24.142;2023-05-02T03:51:04;99423.44;;;10.83;82.63
12215;BME280;6170;42.206;24.142;2023-05-02T03:53:32;99423.25;;;10.70;82.76
12215;BME280;6170;42.206;24.142;2023-05-02T03:55:59;99427.44;;;10.94;82.38
12215;BME280;6170;42.206;24.142;2023-05-02T03:58:27;99462.56;;;11.13;81.94
12215;BME280;6170;42.206;24.142;2023-05-02T04:00:54;99435.78;;;11.20;81.27
12215;BME280;6170;42.206;24.142;2023-05-02T04:03:22;99435.47;;;11.30;81.46
12215;BME280;6170;42.206;24.142;2023-05-02T04:05:49;99435.81;;;11.41;80.59
12215;BME280;6170;42.206;24.142;2023-05-02T04:08:17;99438.16;;;11.51;80.66
12215;BME280;6170;42.206;24.142;2023-05-02T04:10:44;99469.59;;;11.99;80.57
12215;BME280;6170;42.206;24.142;2023-05-02T04:13:11;99444.72;;;12.19;79.10
12215;BME280;6170;42.206;24.142;2023-05-02T04:15:39;99473.94;;;12.63;77.96
12215;BME280;6170;42.206;24.142;2023-05-02T04:18:06;99441.31;;;12.66;77.54
12215;BME280;6170;42.206;24.142;2023-05-02T04:20:33;99444.34;;;13.03;77.14
12215;BME280;6170;42.206;24.142;2023-05-02T04:23:00;99462.53;;;13.49;76.03
12215;BME280;6170;42.206;24.142;2023-05-02T04:25:27;99462.13;;;13.78;74.02
12215;BME280;6170;42.206;24.142;2023-05-02T04:27:54;99477.47;;;13.98;73.90
12215;BME280;6170;42.206;24.142;2023-05-02T04:30:21;99444.47;;;14.35;72.37
12215;BME280;6170;42.206;24.142;2023-05-02T04:32:49;99443.03;;;14.46;71.47
12215;BME280;6170;42.206;24.142;2023-05-02T04:35:16;99449.03;;;14.48;71.62
12215;BME280;6170;42.206;24.142;2023-05-02T04:37:43;99440.69;;;14.69;71.22
12215;BME280;6170;42.206;24.142;2023-05-02T04:40:11;99467.41;;;15.28;70.22
12215;BME280;6170;42.206;24.142;2023-05-02T04:42:38;99471.44;;;15.57;69.43
12215;BME280;6170;42.206;24.142;2023-05-02T04:45:06;99439.03;;;15.82;68.20
12215;BME280;6170;42.206;24.142;2023-05-02T04:47:34;99414.22;;;15.66;67.36
12215;BME280;6170;42.206;24.142;2023-05-02T04:50:02;99463.53;;;15.87;67.68
12215;BME280;6170;42.206;24.142;2023-05-02T04:52:31;99423.75;;;15.94;66.43
12215;BME280;6170;42.206;24.142;2023-05-02T04:55:00;99439.91;;;16.00;67.04
12215;BME280;6170;42.206;24.142;2023-05-02T04:57:27;99442.09;;;16.35;65.62
12215;BME280;6170;42.206;24.142;2023-05-02T04:59:54;99443.75;;;16.36;64.96
12215;BME280;6170;42.206;24.142;2023-05-02T05:02:22;99463.75;;;16.53;64.29
12215;BME280;6170;42.206;24.142;2023-05-02T05:04:50;99455.47;;;16.05;66.13
12215;BME280;6170;42.206;24.142;2023-05-02T05:07:18;99453.31;;;16.56;65.39
12215;BME280;6170;42.206;24.142;2023-05-02T05:09:46;99479.25;;;16.21;65.99
12215;BME280;6170;42.206;24.142;2023-05-02T05:12:13;99458.28;;;16.78;65.10
12215;BME280;6170;42.206;24.142;2023-05-02T05:14:41;99444.19;;;16.57;64.44
12215;BME280;6170;42.206;24.142;2023-05-02T05:17:08;99452.34;;;16.69;61.27
12215;BME280;6170;42.206;24.142;2023-05-02T05:19:35;99481.69;;;16.72;63.51
12215;BME280;6170;42.206;24.142;2023-05-02T05:22:03;99487.16;;;16.66;60.40
12215;BME280;6170;42.206;24.142;2023-05-02T05:24:31;99453.38;;;17.23;60.66
12215;BME280;6170;42.206;24.142;2023-05-02T05:26:58;99458.53;;;16.76;62.48
12215;BME280;6170;42.206;24.142;2023-05-02T05:29:25;99456.13;;;17.34;61.69
12215;BME280;6170;42.206;24.142;2023-05-02T05:31:52;99490.84;;;17.26;59.77
12215;BME280;6170;42.206;24.142;2023-05-02T05:34:19;99489.59;;;17.40;59.73
12215;BME280;6170;42.206;24.142;2023-05-02T05:36:46;99477.34;;;16.89;60.85
12215;BME280;6170;42.206;24.142;2023-05-02T05:39:13;99457.41;;;16.84;60.90
12215;BME280;6170;42.206;24.142;2023-05-02T05:41:42;99454.84;;;17.07;61.75
12215;BME280;6170;42.206;24.142;2023-05-02T05:44:09;99475.72;;;17.00;59.78
12215;BME280;6170;42.206;24.142;2023-05-02T05:46:36;99489.44;;;17.83;61.24
12215;BME280;6170;42.206;24.142;2023-05-02T05:49:03;99474.84;;;17.36;60.17
12215;BME280;6170;42.206;24.142;2023-05-02T05:51:30;99501.19;;;16.99;60.01
12215;BME280;6170;42.206;24.142;2023-05-02T05:53:57;99495.94;;;17.34;58.86
12215;BME280;6170;42.206;24.142;2023-05-02T05:56:24;99501.84;;;16.76;60.78
12215;BME280;6170;42.206;24.142;2023-05-02T05:58:53;99455.16;;;16.81;57.80
12215;BME280;6170;42.206;24.142;2023-05-02T06:01:20;99500.34;;;17.65;58.33
12215;BME280;6170;42.206;24.142;2023-05-02T06:03:47;99505.91;;;17.70;58.68
12215;BME280;6170;42.206;24.142;2023-05-02T06:06:14;99477.28;;;17.74;58.06
12215;BME280;6170;42.206;24.142;2023-05-02T06:08:41;99497.22;;;17.31;60.13
12215;BME280;6170;42.206;24.142;2023-05-02T06:11:09;99479.44;;;17.95;58.53
12215;BME280;6170;42.206;24.142;2023-05-02T06:13:36;99510.63;;;18.27;59.17
12215;BME280;6170;42.206;24.142;2023-05-02T06:16:06;99484.25;;;17.93;60.10
12215;BME280;6170;42.206;24.142;2023-05-02T06:18:33;99466.38;;;18.38;56.72
12215;BME280;6170;42.206;24.142;2023-05-02T06:21:04;99491.78;;;18.56;58.75
12215;BME280;6170;42.206;24.142;2023-05-02T06:23:31;99478.16;;;18.91;57.02
12215;BME280;6170;42.206;24.142;2023-05-02T06:25:59;99469.69;;;18.75;57.81
12215;BME280;6170;42.206;24.142;2023-05-02T06:28:26;99494.97;;;19.27;56.47
12215;BME280;6170;42.206;24.142;2023-05-02T06:30:57;99501.34;;;19.21;58.06
12215;BME280;6170;42.206;24.142;2023-05-02T06:33:27;99497.41;;;19.41;56.74
12215;BME280;6170;42.206;24.142;2023-05-02T06:35:54;99466.97;;;18.40;55.37
12215;BME280;6170;42.206;24.142;2023-05-02T06:38:22;99479.50;;;17.77;57.97
12215;BME280;6170;42.206;24.142;2023-05-02T06:40:49;99464.59;;;18.32;57.38
12215;BME280;6170;42.206;24.142;2023-05-02T06:43:17;99466.47;;;17.97;58.38
12215;BME280;6170;42.206;24.142;2023-05-02T06:45:44;99464.41;;;18.57;58.00
12215;BME280;6170;42.206;24.142;2023-05-02T06:48:12;99460.75;;;17.64;58.49
12215;BME280;6170;42.206;24.142;2023-05-02T06:50:41;99465.91;;;18.30;57.95
12215;BME280;6170;42.206;24.142;2023-05-02T06:53:08;99462.03;;;18.49;59.64
12215;BME280;6170;42.206;24.142;2023-05-02T06:55:35;99478.28;;;18.37;58.98
12215;BME280;6170;42.206;24.142;2023-05-02T06:58:02;99476.09;;;18.58;58.82
12215;BME280;6170;42.206;24.142;2023-05-02T07:00:29;99464.34;;;18.11;59.84
12215;BME280;6170;42.206;24.142;2023-05-02T07:02:56;99457.97;;;17.04;61.30
12215;BME280;6170;42.206;24.142;2023-05-02T07:05:23;99469.16;;;17.56;61.29
12215;BME280;6170;42.206;24.142;2023-05-02T07:07:52;99451.13;;;17.20;60.89
12215;BME280;6170;42.206;24.142;2023-05-02T07:10:19;99486.81;;;18.53;59.92
12215;BME280;6170;42.206;24.142;2023-05-02T07:12:46;99482.31;;;18.81;59.18
12215;BME280;6170;42.206;24.142;2023-05-02T07:15:13;99483.41;;;19.20;59.68
12215;BME280;6170;42.206;24.142;2023-05-02T07:17:41;99475.16;;;20.34;59.03
12215;BME280;6170;42.206;24.142;2023-05-02T07:20:09;99456.25;;;20.82;58.64
12215;BME280;6170;42.206;24.142;2023-05-02T07:22:37;99468.97;;;20.38;58.40
12215;BME280;6170;42.206;24.142;2023-05-02T07:25:07;99466.91;;;21.05;56.44
12215;BME280;6170;42.206;24.142;2023-05-02T07:27:34;99484.41;;;21.31;55.12
12215;BME280;6170;42.206;24.142;2023-05-02T07:30:01;99481.84;;;21.03;55.58
12215;BME280;6170;42.206;24.142;2023-05-02T07:32:28;99468.19;;;19.76;55.59
12215;BME280;6170;42.206;24.142;2023-05-02T07:34:55;99448.22;;;19.87;56.03
12215;BME280;6170;42.206;24.142;2023-05-02T07:37:22;99472.28;;;19.79;58.09
12215;BME280;6170;42.206;24.142;2023-05-02T07:39:49;99474.06;;;19.56;59.78
12215;BME280;6170;42.206;24.142;2023-05-02T07:42:18;99441.91;;;18.97;57.82
12215;BME280;6170;42.206;24.142;2023-05-02T07:44:45;99423.13;;;18.95;60.34
12215;BME280;6170;42.206;24.142;2023-05-02T07:47:12;99451.88;;;19.08;59.58
12215;BME280;6170;42.206;24.142;2023-05-02T07:49:39;99470.91;;;19.48;58.79
12215;BME280;6170;42.206;24.142;2023-05-02T07:52:06;99478.16;;;20.54;57.50
12215;BME280;6170;42.206;24.142;2023-05-02T07:54:33;99429.13;;;18.57;59.72
12215;BME280;6170;42.206;24.142;2023-05-02T07:57:01;99459.44;;;19.74;58.21
12215;BME280;6170;42.206;24.142;2023-05-02T07:59:31;99441.81;;;19.93;58.87
12215;BME280;6170;42.206;24.142;2023-05-02T08:01:58;99469.28;;;20.80;56.61
12215;BME280;6170;42.206;24.142;2023-05-02T08:04:25;99439.44;;;19.97;55.43
12215;BME280;6170;42.206;24.142;2023-05-02T08:06:53;99480.63;;;19.72;55.51
12215;BME280;6170;42.206;24.142;2023-05-02T08:09:21;99438.19;;;19.71;57.27
12215;BME280;6170;42.206;24.142;2023-05-02T08:11:48;99442.84;;;20.59;53.37
12215;BME280;6170;42.206;24.142;2023-05-02T08:14:16;99463.44;;;20.72;55.24
12215;BME280;6170;42.206;24.142;2023-05-02T08:16:45;99453.22;;;21.22;52.23
12215;BME280;6170;42.206;24.142;2023-05-02T08:19:14;99447.00;;;21.05;53.46
12215;BME280;6170;42.206;24.142;2023-05-02T08:21:41;99466.63;;;21.07;55.72
12215;BME280;6170;42.206;24.142;2023-05-02T08:24:08;99460.19;;;21.35;55.86
12215;BME280;6170;42.206;24.142;2023-05-02T08:26:35;99445.34;;;20.27;54.22
12215;BME280;6170;42.206;24.142;2023-05-02T08:29:02;99448.81;;;19.56;54.43
12215;BME280;6170;42.206;24.142;2023-05-02T08:31:29;99448.25;;;20.21;55.82
12215;BME280;6170;42.206;24.142;2023-05-02T08:33:58;99463.91;;;20.85;54.58
12215;BME280;6170;42.206;24.142;2023-05-02T08:36:25;99425.81;;;21.61;54.70
12215;BME280;6170;42.206;24.142;2023-05-02T08:38:53;99457.53;;;20.75;53.59
12215;BME280;6170;42.206;24.142;2023-05-02T08:41:21;99466.31;;;20.82;53.18
12215;BME280;6170;42.206;24.142;2023-05-02T08:43:48;99445.63;;;20.09;55.48
12215;BME280;6170;42.206;24.142;2023-05-02T08:46:16;99414.72;;;19.82;55.20
12215;BME280;6170;42.206;24.142;2023-05-02T08:48:44;99447.00;;;20.28;56.76
12215;BME280;6170;42.206;24.142;2023-05-02T08:51:16;99433.59;;;20.22;55.32
12215;BME280;6170;42.206;24.142;2023-05-02T08:53:44;99427.31;;;20.04;57.21
12215;BME280;6170;42.206;24.142;2023-05-02T08:56:11;99438.19;;;21.41;54.96
12215;BME280;6170;42.206;24.142;2023-05-02T08:58:40;99446.34;;;21.15;53.81
12215;BME280;6170;42.206;24.142;2023-05-02T12:14:28;99207.84;;;22.68;38.42
12215;BME280;6170;42.206;24.142;2023-05-02T12:16:58;99196.97;;;22.99;38.88
12215;BME280;6170;42.206;24.142;2023-05-02T12:19:25;99224.59;;;23.12;38.02
12215;BME280;6170;42.206;24.142;2023-05-02T12:21:52;99195.59;;;23.06;40.12
12215;BME280;6170;42.206;24.142;2023-05-02T12:24:19;99189.31;;;23.36;38.73
12215;BME280;6170;42.206;24.142;2023-05-02T12:26:46;99192.31;;;23.50;40.52
12215;BME280;6170;42.206;24.142;2023-05-02T12:29:14;99187.41;;;23.16;38.28
12215;BME280;6170;42.206;24.142;2023-05-02T12:31:50;99191.22;;;23.31;37.73
12215;BME280;6170;42.206;24.142;2023-05-02T12:34:31;99183.03;;;22.90;39.64
12215;BME280;6170;42.206;24.142;2023-05-02T12:36:58;99173.69;;;22.66;38.68
12215;BME280;6170;42.206;24.142;2023-05-02T12:39:33;99191.47;;;23.29;40.83
12215;BME280;6170;42.206;24.142;2023-05-02T12:42:08;99148.03;;;23.12;41.13
12215;BME280;6170;42.206;24.142;2023-05-02T12:44:35;99159.78;;;22.98;37.80
12215;BME280;6170;42.206;24.142;2023-05-02T12:47:04;99154.31;;;23.13;39.54
12215;BME280;6170;42.206;24.142;2023-05-02T12:49:32;99150.16;;;23.56;38.39
12215;BME280;6170;42.206;24.142;2023-05-02T12:51:59;99154.31;;;23.18;40.47
12215;BME280;6170;42.206;24.142;2023-05-02T12:54:26;99174.00;;;22.95;37.40
12215;BME280;6170;42.206;24.142;2023-05-02T12:56:53;99149.41;;;22.90;40.12
12215;BME280;6170;42.206;24.142;2023-05-02T12:59:27;99169.91;;;23.27;36.32
12215;BME280;6170;42.206;24.142;2023-05-02T13:01:54;99141.44;;;23.23;37.53
12215;BME280;6170;42.206;24.142;2023-05-02T13:04:32;99141.69;;;23.37;38.31
12215;BME280;6170;42.206;24.142;2023-05-02T13:06:59;99158.41;;;23.10;37.23
12215;BME280;6170;42.206;24.142;2023-05-02T13:09:26;99134.94;;;23.04;38.14
12215;BME280;6170;42.206;24.142;2023-05-02T13:11:53;99167.72;;;23.04;38.49
12215;BME280;6170;42.206;24.142;2023-05-02T13:14:20;99146.09;;;23.33;37.65
12215;BME280;6170;42.206;24.142;2023-05-02T13:16:48;99145.84;;;23.19;38.68
12215;BME280;6170;42.206;24.142;2023-05-02T13:19:17;99149.06;;;23.42;38.75
12215;BME280;6170;42.206;24.142;2023-05-02T13:21:46;99147.78;;;22.99;37.07
12215;BME280;6170;42.206;24.142;2023-05-02T13:24:13;99165.53;;;23.21;37.53
12215;BME280;6170;42.206;24.142;2023-05-02T13:26:41;99135.22;;;22.82;36.21
12215;BME280;6170;42.206;24.142;2023-05-02T13:29:08;99137.63;;;23.19;37.24
12215;BME280;6170;42.206;24.142;2023-05-02T13:31:37;99135.97;;;23.23;36.39
12215;BME280;6170;42.206;24.142;2023-05-02T13:34:04;99129.72;;;23.03;36.89
12215;BME280;6170;42.206;24.142;2023-05-02T13:36:31;99113.84;;;23.15;36.76
12215;BME280;6170;42.206;24.142;2023-05-02T13:38:59;99110.53;;;23.48;37.85
12215;BME280;6170;42.206;24.142;2023-05-02T13:41:27;99105.69;;;22.95;38.41
12215;BME280;6170;42.206;24.142;2023-05-02T13:43:54;99113.06;;;22.84;37.11
12215;BME280;6170;42.206;24.142;2023-05-02T13:46:21;99104.03;;;22.99;37.96
12215;BME280;6170;42.206;24.142;2023-05-02T13:48:48;99128.06;;;23.27;37.90
12215;BME280;6170;42.206;24.142;2023-05-02T13:51:14;99097.19;;;23.16;38.54
12215;BME280;6170;42.206;24.142;2023-05-02T13:53:41;99119.09;;;22.81;38.01
12215;BME280;6170;42.206;24.142;2023-05-02T13:56:10;99106.53;;;22.70;38.69
12215;BME280;6170;42.206;24.142;2023-05-02T13:58:37;99130.84;;;22.81;37.70
12215;BME280;6170;42.206;24.142;2023-05-02T14:01:04;99111.97;;;22.80;38.07
12215;BME280;6170;42.206;24.142;2023-05-02T14:03:31;99106.50;;;22.60;38.41
12215;BME280;6170;42.206;24.142;2023-05-02T14:05:58;99114.13;;;22.43;37.75
12215;BME280;6170;42.206;24.142;2023-05-02T14:08:24;99134.88;;;22.59;37.62
12215;BME280;6170;42.206;24.142;2023-05-02T14:10:52;99116.56;;;22.29;38.05
12215;BME280;6170;42.206;24.142;2023-05-02T14:13:20;99132.09;;;22.18;37.71
12215;BME280;6170;42.206;24.142;2023-05-02T14:15:47;99107.25;;;22.20;38.41
12215;BME280;6170;42.206;24.142;2023-05-02T14:18:14;99104.47;;;22.05;38.04
12215;BME280;6170;42.206;24.142;2023-05-02T14:20:41;99100.47;;;22.43;38.46
12215;BME280;6170;42.206;24.142;2023-05-02T14:23:08;99126.69;;;22.38;39.25
12215;BME280;6170;42.206;24.142;2023-05-02T14:25:36;99112.75;;;22.40;41.06
12215;BME280;6170;42.206;24.142;2023-05-02T14:28:03;99098.78;;;22.16;39.82
12215;BME280;6170;42.206;24.142;2023-05-02T14:30:32;99126.13;;;22.42;39.24
12215;BME280;6170;42.206;24.142;2023-05-02T14:32:59;99099.56;;;21.97;39.72
12215;BME280;6170;42.206;24.142;2023-05-02T14:35:26;99108.66;;;22.32;37.94
12215;BME280;6170;42.206;24.142;2023-05-02T14:37:52;99102.28;;;22.02;38.92
12215;BME280;6170;42.206;24.142;2023-05-02T14:40:19;99089.19;;;21.93;39.98
12215;BME280;6170;42.206;24.142;2023-05-02T14:42:46;99117.59;;;22.08;38.72
12215;BME280;6170;42.206;24.142;2023-05-02T14:45:13;99086.41;;;21.88;38.20
12215;BME280;6170;42.206;24.142;2023-05-02T14:47:41;99097.56;;;21.82;38.95
12215;BME280;6170;42.206;24.142;2023-05-02T14:50:09;99106.03;;;21.85;39.45
12215;BME280;6170;42.206;24.142;2023-05-02T14:52:36;99120.84;;;22.05;39.04
12215;BME280;6170;42.206;24.142;2023-05-02T14:55:03;99096.63;;;21.56;39.54
12215;BME280;6170;42.206;24.142;2023-05-02T14:57:31;99105.19;;;21.80;39.35
12215;BME280;6170;42.206;24.142;2023-05-02T14:59:58;99096.66;;;21.61;40.71
12215;BME280;6170;42.206;24.142;2023-05-02T15:02:25;99097.53;;;21.72;39.15
12215;BME280;6170;42.206;24.142;2023-05-02T15:04:53;99099.69;;;21.70;40.57
12215;BME280;6170;42.206;24.142;2023-05-02T15:07:20;99094.84;;;21.77;40.58
12215;BME280;6170;42.206;24.142;2023-05-02T15:09:47;99120.34;;;22.13;40.20
12215;BME280;6170;42.206;24.142;2023-05-02T15:12:14;99094.25;;;21.70;40.48
12215;BME280;6170;42.206;24.142;2023-05-02T15:14:40;99071.28;;;21.61;39.77
12215;BME280;6170;42.206;24.142;2023-05-02T15:17:07;99071.25;;;21.45;40.82
12215;BME280;6170;42.206;24.142;2023-05-02T15:19:34;99092.59;;;21.69;40.23
12215;BME280;6170;42.206;24.142;2023-05-02T15:22:02;99085.91;;;21.34;40.28
12215;BME280;6170;42.206;24.142;2023-05-02T15:24:29;99057.47;;;21.20;40.73
12215;BME280;6170;42.206;24.142;2023-05-02T15:26:56;99111.50;;;21.85;40.39
12215;BME280;6170;42.206;24.142;2023-05-02T15:29:23;99075.97;;;21.70;41.48
12215;BME280;6170;42.206;24.142;2023-05-02T15:31:50;99099.34;;;21.51;41.25
12215;BME280;6170;42.206;24.142;2023-05-02T15:34:18;99071.38;;;21.19;41.56
12215;BME280;6170;42.206;24.142;2023-05-02T15:36:45;99092.25;;;21.50;40.71
12215;BME280;6170;42.206;24.142;2023-05-02T15:39:14;99099.28;;;21.36;40.75
12215;BME280;6170;42.206;24.142;2023-05-02T15:41:41;99059.41;;;21.20;40.24
12215;BME280;6170;42.206;24.142;2023-05-02T15:44:10;99063.09;;;21.08;41.66
12215;BME280;6170;42.206;24.142;2023-05-02T15:46:37;99072.22;;;21.19;42.28
12215;BME280;6170;42.206;24.142;2023-05-02T15:49:05;99080.38;;;21.19;41.13
12215;BME280;6170;42.206;24.142;2023-05-02T15:51:32;99103.03;;;21.30;41.89
12215;BME280;6170;42.206;24.142;2023-05-02T15:53:59;99090.09;;;21.10;41.55
12215;BME280;6170;42.206;24.142;2023-05-02T15:56:27;99079.66;;;20.97;42.51
12215;BME280;6170;42.206;24.142;2023-05-02T15:58:54;99080.63;;;20.81;41.61
12215;BME280;6170;42.206;24.142;2023-05-02T16:01:21;99100.84;;;20.90;44.04
12215;BME280;6170;42.206;24.142;2023-05-02T16:03:48;99075.84;;;20.61;42.62
12215;BME280;6170;42.206;24.142;2023-05-02T16:06:15;99066.81;;;20.55;42.44
12215;BME280;6170;42.206;24.142;2023-05-02T16:08:42;99074.41;;;20.53;42.53
12215;BME280;6170;42.206;24.142;2023-05-02T16:11:09;99099.53;;;20.60;44.11
12215;BME280;6170;42.206;24.142;2023-05-02T16:13:37;99103.91;;;20.61;42.83
12215;BME280;6170;42.206;24.142;2023-05-02T16:16:05;99077.13;;;20.48;42.51
12215;BME280;6170;42.206;24.142;2023-05-02T16:18:32;99062.00;;;20.31;43.43